NK19 weather

Potoczak Airport
Clarence Center, New York, United States

Public forecast

Using degrees Fahrenheit for public forecast. Weather courtesy of forecast.io.

METAR (pilot weather report)

Closest report is Buffalo Niagara International Airport, 7.9 nm (14.6 km) SSW. Retrieved 2019/06/25 20:54 UTC (44 minutes ago):

KBUF 252054Z 24018G25KT 10SM FEW035 FEW075 FEW290 22/16 A2990 RMK AO2 PK WND 22030/2009 SLP122 60000 T02170156 51009

TAF (pilot weather forecast)

Closest forecast is Buffalo Niagara International Airport, 7.9 nm (14.6 km) SSW. Retrieved 2019/06/25 18:30 UTC (3 hours ago):

TAF KBUF 251727Z 2518/2618 24020G30KT P6SM SCT040 FM252200 24014G22KT P6SM SKC FM260000 22008KT P6SM SKC FM260800 21008KT P6SM BKN080 FM261400 23014G22KT P6SM SCT040